Ridgeview, South Dakota
Current Conditions -  °F | °C
As of 10:52 PM on Wednesday 28 Jan 2015 (Local Time) from KMBG Reporting Station
Overcast Overcast  
Wind Chill: 23°   Ceiling: 1700
Heat Index: 35°   Visibility: 10mi
Dew Point: 29°   Wind: 23mph
Humidity: 78%   Direction: 330°NNW
Pressure: 30.19"   Gusts: 30mph
Location:  45.09°N, 100.8°W
Report Text: KMBG 290552Z AUTO 33020G26KT 10SM OVC017 02/M02 A3019 RMK AO2 PK WND 33031/0535 SLP238 T00171017 10022 20011 401221022 53024
Loading
Personal Weather Stations






























Interactive Weather Map New forecast layout! Learn more

10-Day Weather Forecast

Advertisements
Track Severe Weather on mobile